createdAt,value
2022-09-15T00:02:18.588Z,99685.63
2022-09-15T00:04:44.960Z,99686.03
2022-09-15T00:07:11.284Z,99682.94
2022-09-15T00:09:37.584Z,99683.34
2022-09-15T00:12:08.680Z,99683.78
2022-09-15T00:14:35.012Z,99688.09
2022-09-15T00:17:01.356Z,99686.97
2022-09-15T00:19:27.682Z,99687.34
2022-09-15T00:21:53.999Z,99689.69
2022-09-15T00:24:20.369Z,99692.47
2022-09-15T00:26:46.763Z,99697.59
2022-09-15T00:29:13.088Z,99685.03
2022-09-15T00:31:39.414Z,99690.13
2022-09-15T00:34:07.053Z,99694.50
2022-09-15T00:36:33.857Z,99695.25
2022-09-15T00:39:00.370Z,99689.00
2022-09-15T00:41:26.746Z,99691.75
2022-09-15T00:43:57.204Z,99689.81
2022-09-15T00:46:27.544Z,99692.56
2022-09-15T00:49:05.775Z,99688.25
2022-09-15T00:51:50.425Z,99692.19
2022-09-15T00:54:18.659Z,99689.81
2022-09-15T00:56:47.889Z,99696.59
2022-09-15T00:59:16.932Z,99701.69
2022-09-15T01:01:43.758Z,99699.34
2022-09-15T01:04:10.248Z,99695.84
2022-09-15T01:06:38.215Z,99692.28
2022-09-15T01:09:25.614Z,99691.47
2022-09-15T01:11:51.980Z,99691.91
2022-09-15T01:14:18.282Z,99688.34
2022-09-15T01:16:59.455Z,99689.94
2022-09-15T01:19:45.789Z,99682.88
2022-09-15T01:22:12.056Z,99692.34
2022-09-15T01:24:41.182Z,99696.25
2022-09-15T01:27:42.186Z,99694.28
2022-09-15T01:30:12.198Z,99692.69
2022-09-15T01:33:06.731Z,99697.41
2022-09-15T01:35:36.038Z,99697.78
2022-09-15T01:38:15.342Z,99699.34
2022-09-15T01:40:44.706Z,99695.78
2022-09-15T01:43:11.284Z,99693.03
2022-09-15T01:45:39.115Z,99697.75
2022-09-15T01:48:06.328Z,99693.81
2022-09-15T01:50:36.608Z,99691.44
2022-09-15T01:53:05.633Z,99700.50
2022-09-15T01:55:58.000Z,99700.13
2022-09-15T01:58:24.396Z,99699.72
2022-09-15T02:00:53.725Z,99698.53
2022-09-15T02:03:22.354Z,99697.72
2022-09-15T02:05:52.437Z,99689.88
2022-09-15T02:08:36.575Z,99689.47
2022-09-15T02:11:09.014Z,99690.66
2022-09-15T02:13:45.165Z,99698.53
2022-09-15T02:16:15.854Z,99698.91
2022-09-15T02:18:46.030Z,99692.63
2022-09-15T02:21:18.842Z,99691.47
2022-09-15T02:23:50.964Z,99692.28
2022-09-15T02:26:19.591Z,99695.78
2022-09-15T02:28:48.150Z,99685.97
2022-09-15T02:31:16.126Z,99689.19
2022-09-15T02:33:45.270Z,99690.28
2022-09-15T02:36:13.494Z,99684.06
2022-09-15T02:38:43.918Z,99686.03
2022-09-15T02:41:10.262Z,99676.63
2022-09-15T02:43:44.011Z,99681.31
2022-09-15T02:46:10.378Z,99682.91
2022-09-15T02:48:36.708Z,99676.66
2022-09-15T02:51:03.069Z,99672.34
2022-09-15T02:53:29.385Z,99667.19
2022-09-15T02:55:56.217Z,99662.88
2022-09-15T02:58:22.498Z,99667.22
2022-09-15T03:00:48.877Z,99660.16
2022-09-15T03:03:15.283Z,99661.34
2022-09-15T03:05:41.567Z,99656.94
2022-09-15T03:08:07.847Z,99650.31
2022-09-15T03:10:34.241Z,99646.81
2022-09-15T03:13:00.552Z,99643.63
2022-09-15T03:15:27.083Z,99647.91
2022-09-15T03:17:53.911Z,99643.63
2022-09-15T03:20:24.227Z,99638.94
2022-09-15T03:22:50.569Z,99649.88
2022-09-15T03:25:17.530Z,99644.41
2022-09-15T03:27:43.840Z,99643.97
2022-09-15T03:30:11.148Z,99647.53
2022-09-15T03:32:37.704Z,99636.97
2022-09-15T03:35:04.729Z,99632.66
2022-09-15T03:37:31.142Z,99639.22
2022-09-15T03:39:58.033Z,99634.03
2022-09-15T03:42:24.433Z,99635.66
2022-09-15T03:44:50.774Z,99638.09
2022-09-15T03:47:17.227Z,99634.16
2022-09-15T03:49:43.504Z,99632.97
2022-09-15T03:52:10.046Z,99626.25
2022-09-15T03:54:36.375Z,99635.69
2022-09-15T03:57:03.272Z,99634.91
2022-09-15T03:59:29.556Z,99633.69
2022-09-15T04:01:56.039Z,99631.75
2022-09-15T04:04:22.419Z,99630.88
2022-09-15T04:06:48.737Z,99626.56
2022-09-15T04:09:15.162Z,99624.22
2022-09-15T04:11:41.824Z,99634.03
2022-09-15T04:14:08.179Z,99635.56
2022-09-15T04:16:34.660Z,99631.31
2022-09-15T04:19:01.043Z,99632.56
2022-09-15T04:21:27.406Z,99634.03
2022-09-15T04:23:54.090Z,99635.66
2022-09-15T04:26:31.348Z,99641.97
2022-09-15T04:29:03.024Z,99632.16
2022-09-15T04:31:30.783Z,99634.50
2022-09-15T04:33:57.205Z,99627.44
2022-09-15T04:36:24.789Z,99628.66
2022-09-15T04:38:51.555Z,99630.63
2022-09-15T04:41:18.916Z,99629.06
2022-09-15T04:43:45.808Z,99632.97
2022-09-15T04:46:12.887Z,99636.13
2022-09-15T04:48:39.328Z,99644.38
2022-09-15T04:51:06.990Z,99637.31
2022-09-15T04:53:33.499Z,99640.47
2022-09-15T04:56:07.262Z,99637.34
2022-09-15T04:58:37.504Z,99632.66
2022-09-15T05:01:10.610Z,99638.53
2022-09-15T05:03:37.999Z,99638.94
2022-09-15T05:06:05.853Z,99633.84
2022-09-15T05:08:32.194Z,99638.19
2022-09-15T05:10:59.462Z,99640.53
2022-09-15T05:13:25.756Z,99635.78
2022-09-15T05:15:52.084Z,99641.69
2022-09-15T05:18:18.449Z,99638.94
2022-09-15T05:20:44.751Z,99634.63
2022-09-15T05:23:11.038Z,99632.66
2022-09-15T05:25:38.685Z,99629.13
2022-09-15T05:28:05.650Z,99632.25
2022-09-15T05:30:38.609Z,99644.84
2022-09-15T05:33:07.005Z,99639.34
2022-09-15T05:35:33.281Z,99643.63
2022-09-15T05:37:59.706Z,99643.25
2022-09-15T05:40:26.060Z,99642.09
2022-09-15T05:42:52.732Z,99642.84
2022-09-15T05:45:19.010Z,99636.56
2022-09-15T05:47:45.324Z,99643.19
2022-09-15T05:50:11.647Z,99656.94
2022-09-15T05:52:38.115Z,99647.06
2022-09-15T05:55:04.619Z,99636.13
2022-09-15T05:57:30.968Z,99643.94
2022-09-15T05:59:57.305Z,99651.38
2022-09-15T06:02:23.685Z,99657.28
2022-09-15T06:04:49.998Z,99659.97
2022-09-15T06:07:16.526Z,99662.38
2022-09-15T06:09:42.829Z,99659.63
2022-09-15T06:12:09.354Z,99654.13
2022-09-15T06:14:35.641Z,99666.28
2022-09-15T06:17:01.955Z,99673.00
2022-09-15T06:19:28.288Z,99674.25
2022-09-15T06:21:54.557Z,99663.59
2022-09-15T06:24:21.544Z,99656.94
2022-09-15T06:26:47.862Z,99660.09
2022-09-15T06:29:14.196Z,99667.97
2022-09-15T06:31:40.614Z,99670.28
2022-09-15T06:34:08.557Z,99669.91
2022-09-15T06:36:36.431Z,99667.19
2022-09-15T06:39:03.049Z,99675.81
2022-09-15T06:41:38.174Z,99667.56
2022-09-15T06:44:09.479Z,99658.94
2022-09-15T06:46:36.155Z,99667.56
2022-09-15T06:49:02.540Z,99675.00
2022-09-15T06:51:31.360Z,99663.19
2022-09-15T06:53:57.837Z,99657.66
2022-09-15T06:56:24.212Z,99668.31
2022-09-15T06:58:50.581Z,99671.00
2022-09-15T07:01:21.499Z,99665.09
2022-09-15T07:03:48.007Z,99663.16
2022-09-15T07:06:14.755Z,99665.47
2022-09-15T07:08:41.649Z,99668.63
2022-09-15T07:11:08.792Z,99666.28
2022-09-15T07:13:35.482Z,99663.88
2022-09-15T07:16:03.961Z,99677.25
2022-09-15T07:18:34.270Z,99668.22
2022-09-15T07:21:02.003Z,99683.97
2022-09-15T07:23:28.953Z,99689.44
2022-09-15T07:26:07.211Z,99682.81
2022-09-15T07:28:34.173Z,99689.84
2022-09-15T07:31:00.527Z,99689.41
2022-09-15T07:33:26.848Z,99692.56
2022-09-15T07:35:53.146Z,99679.59
2022-09-15T07:38:19.445Z,99675.59
2022-09-15T07:40:46.388Z,99689.72
2022-09-15T07:43:13.184Z,99683.41
2022-09-15T07:45:39.734Z,99690.41
2022-09-15T07:48:07.257Z,99685.25
2022-09-15T07:50:33.552Z,99690.84
2022-09-15T07:52:59.872Z,99696.75
2022-09-15T07:55:26.257Z,99706.09
2022-09-15T07:58:02.348Z,99708.50
2022-09-15T08:00:28.900Z,99707.31
2022-09-15T08:02:55.786Z,99708.81
2022-09-15T08:05:25.780Z,99706.88
2022-09-15T08:07:52.114Z,99713.13
2022-09-15T08:10:18.485Z,99709.72
2022-09-15T08:12:44.881Z,99715.25
2022-09-15T08:15:11.220Z,99715.97
2022-09-15T08:17:37.512Z,99718.75
2022-09-15T08:20:03.956Z,99721.47
2022-09-15T08:22:30.290Z,99728.16
2022-09-15T08:24:56.567Z,99730.97
2022-09-15T08:27:24.614Z,99728.50
2022-09-15T08:29:51.504Z,99737.59
2022-09-15T08:32:17.905Z,99728.25
2022-09-15T08:34:44.455Z,99735.66
2022-09-15T08:37:10.814Z,99737.19
2022-09-15T08:39:37.184Z,99738.31
2022-09-15T08:42:04.190Z,99736.41
2022-09-15T08:44:36.510Z,99732.84
2022-09-15T08:47:11.132Z,99746.28
2022-09-15T08:49:56.212Z,99741.53
2022-09-15T08:52:25.602Z,99751.34
2022-09-15T08:54:55.241Z,99752.44
2022-09-15T08:57:23.404Z,99747.00
2022-09-15T08:59:49.856Z,99749.38
2022-09-15T09:02:29.395Z,99747.72
2022-09-15T09:05:11.048Z,99746.09
2022-09-15T09:08:03.806Z,99756.44
2022-09-15T09:10:33.166Z,99749.97
2022-09-15T09:13:13.577Z,99750.78
2022-09-15T09:15:42.945Z,99752.03
2022-09-15T09:18:26.109Z,99748.16
2022-09-15T09:21:01.085Z,99748.94
2022-09-15T09:23:28.472Z,99747.22
2022-09-15T09:25:56.319Z,99752.81
2022-09-15T09:28:27.955Z,99748.44
2022-09-15T09:30:55.938Z,99754.63
2022-09-15T09:33:34.613Z,99754.91
2022-09-15T09:36:02.382Z,99758.34
2022-09-15T09:38:31.677Z,99746.47
2022-09-15T09:41:02.132Z,99764.06
2022-09-15T09:43:29.927Z,99746.34
2022-09-15T09:45:56.552Z,99752.53
2022-09-15T09:48:24.119Z,99746.50
2022-09-15T09:50:50.791Z,99743.72
2022-09-15T09:53:17.094Z,99744.06
2022-09-15T09:55:45.733Z,99736.97
2022-09-15T09:58:14.472Z,99747.97
2022-09-15T10:00:41.115Z,99743.22
2022-09-15T10:03:24.570Z,99750.03
2022-09-15T10:06:03.770Z,99750.88
2022-09-15T10:08:30.428Z,99761.19
2022-09-15T10:11:00.862Z,99765.94
2022-09-15T10:13:27.212Z,99766.88
2022-09-15T10:15:56.264Z,99769.91
2022-09-15T10:18:26.669Z,99769.63
2022-09-15T10:20:53.066Z,99768.88
2022-09-15T10:23:21.552Z,99771.22
2022-09-15T10:26:03.609Z,99780.28
2022-09-15T10:28:29.972Z,99774.06
2022-09-15T10:31:00.802Z,99776.88
2022-09-15T10:33:28.239Z,99773.66
2022-09-15T10:35:55.265Z,99783.09
2022-09-15T10:38:30.590Z,99768.22
2022-09-15T10:41:20.297Z,99775.25
2022-09-15T10:44:05.625Z,99775.25
2022-09-15T10:46:50.650Z,99772.47
2022-09-15T10:49:29.082Z,99770.22
2022-09-15T10:52:01.535Z,99764.19
2022-09-15T10:54:34.135Z,99778.00
2022-09-15T10:57:10.580Z,99774.91
2022-09-15T10:59:53.633Z,99779.84
2022-09-15T11:02:19.951Z,99781.31
2022-09-15T11:05:04.641Z,99784.94
2022-09-15T11:07:42.394Z,99789.94
2022-09-15T11:10:19.041Z,99794.63
2022-09-15T11:13:03.843Z,99788.06
2022-09-15T11:15:33.262Z,99794.31
2022-09-15T11:18:02.544Z,99792.84
2022-09-15T11:20:39.204Z,99795.97
2022-09-15T11:23:17.892Z,99786.44
2022-09-15T11:25:47.014Z,99782.41
2022-09-15T11:28:24.996Z,99791.41
2022-09-15T11:31:11.744Z,99786.13
2022-09-15T11:33:43.284Z,99793.72
2022-09-15T11:36:12.800Z,99790.34
2022-09-15T11:38:48.798Z,99784.69
2022-09-15T11:41:33.454Z,99787.88
2022-09-15T11:44:09.683Z,99795.19
2022-09-15T11:46:53.459Z,99788.53
2022-09-15T11:49:23.116Z,99786.81
2022-09-15T11:51:52.558Z,99793.38
2022-09-15T11:54:36.927Z,99777.78
2022-09-15T11:57:03.635Z,99796.50
2022-09-15T11:59:40.230Z,99789.34
2022-09-15T12:02:15.979Z,99799.50
2022-09-15T12:05:03.211Z,99799.09
2022-09-15T12:07:32.659Z,99790.84
2022-09-15T12:10:05.275Z,99802.25
2022-09-15T12:12:33.458Z,99788.84
2022-09-15T12:14:59.756Z,99796.00
2022-09-15T12:17:26.051Z,99789.34
2022-09-15T12:19:59.966Z,99784.22
2022-09-15T12:22:26.301Z,99793.56
2022-09-15T12:24:52.604Z,99795.13
2022-09-15T12:27:20.129Z,99786.41
2022-09-15T12:29:50.480Z,99785.84
2022-09-15T12:32:30.343Z,99779.91
2022-09-15T12:34:56.732Z,99788.38
2022-09-15T12:37:24.329Z,99789.88
2022-09-15T12:39:51.178Z,99787.88
2022-09-15T12:42:23.640Z,99781.91
2022-09-15T12:45:04.806Z,99791.47
2022-09-15T12:47:41.318Z,99792.94
2022-09-15T12:50:20.612Z,99792.69
2022-09-15T12:52:48.655Z,99795.44
2022-09-15T12:55:41.457Z,99787.03
2022-09-15T12:58:09.611Z,99780.09
2022-09-15T13:00:54.810Z,99773.38
2022-09-15T13:03:28.357Z,99779.66
2022-09-15T13:06:12.504Z,99778.53
2022-09-15T13:08:38.798Z,99774.50
2022-09-15T13:11:08.643Z,99776.34
2022-09-15T13:13:39.435Z,99774.94
2022-09-15T13:16:12.034Z,99778.06
2022-09-15T13:18:38.645Z,99762.91
2022-09-15T13:21:07.442Z,99771.22
2022-09-15T13:23:39.818Z,99770.66
2022-09-15T13:26:08.855Z,99767.75
2022-09-15T13:28:36.594Z,99765.56
2022-09-15T13:31:15.101Z,99768.13
2022-09-15T13:39:48.609Z,99765.16
2022-09-15T13:42:14.932Z,99769.94
2022-09-15T13:44:56.646Z,99761.94
2022-09-15T13:47:25.965Z,99774.56
2022-09-15T13:49:55.242Z,99774.84
2022-09-15T13:52:26.848Z,99784.09
2022-09-15T13:55:11.817Z,99795.59
2022-09-15T14:00:42.422Z,99815.53
2022-09-15T14:03:11.189Z,99803.22
2022-09-15T14:05:37.778Z,99809.31
2022-09-15T14:08:07.692Z,99793.22
2022-09-15T14:10:39.321Z,99798.06
2022-09-15T14:13:05.653Z,99800.81
2022-09-15T14:15:32.103Z,99794.50
2022-09-15T14:17:58.461Z,99786.28
2022-09-15T14:20:27.001Z,99795.09
2022-09-15T14:22:53.373Z,99792.69
2022-09-15T14:25:20.142Z,99798.72
2022-09-15T14:27:50.803Z,99796.34
2022-09-15T14:30:22.623Z,99796.19
2022-09-15T14:32:52.322Z,99790.69
2022-09-15T14:35:24.142Z,99785.28
2022-09-15T14:37:56.010Z,99776.50
2022-09-15T14:40:24.485Z,99778.16
2022-09-15T14:42:51.305Z,99782.84
2022-09-15T14:48:16.545Z,99787.16
2022-09-15T14:50:48.188Z,99788.03
2022-09-15T14:53:17.784Z,99779.38
2022-09-15T14:55:44.051Z,99778.16
2022-09-15T14:58:16.714Z,99772.69
2022-09-15T15:00:49.805Z,99777.44
2022-09-15T15:03:18.176Z,99778.53
2022-09-15T15:05:54.691Z,99769.38
2022-09-15T15:08:34.137Z,99772.59
2022-09-15T15:11:01.000Z,99764.31
2022-09-15T15:13:27.972Z,99755.66
2022-09-15T15:15:54.439Z,99763.03
2022-09-15T15:18:51.334Z,99762.22
2022-09-15T15:21:31.157Z,99760.19
2022-09-15T15:23:57.751Z,99762.91
2022-09-15T15:26:34.645Z,99766.38
2022-09-15T15:29:01.118Z,99755.00
2022-09-15T15:31:28.675Z,99757.38
2022-09-15T15:33:57.087Z,99742.06
2022-09-15T15:36:24.192Z,99756.97
2022-09-15T15:38:52.698Z,99749.38
2022-09-15T15:41:20.599Z,99754.91
2022-09-15T15:43:57.369Z,99755.66
2022-09-15T15:46:42.597Z,99747.72
2022-09-15T15:49:13.207Z,99755.63
2022-09-15T15:51:40.218Z,99750.88
2022-09-15T15:54:06.571Z,99755.16
2022-09-15T15:56:37.673Z,99763.97
2022-09-15T15:59:04.282Z,99758.97
2022-09-15T16:01:31.027Z,99765.94
2022-09-15T16:03:57.629Z,99768.38
2022-09-15T16:06:24.039Z,99771.47
2022-09-15T16:08:51.322Z,99772.75
2022-09-15T16:11:17.716Z,99780.66
2022-09-15T16:13:44.187Z,99772.88
2022-09-15T16:16:20.603Z,99775.25
2022-09-15T16:18:47.453Z,99773.69
2022-09-15T16:21:16.618Z,99768.22
2022-09-15T16:23:43.015Z,99760.72
2022-09-15T16:26:11.246Z,99759.56
2022-09-15T16:28:37.898Z,99750.94
2022-09-15T16:31:04.463Z,99760.69
2022-09-15T16:33:34.608Z,99763.78
2022-09-15T16:36:06.964Z,99755.22
2022-09-15T16:38:33.968Z,99756.38
2022-09-15T16:41:00.945Z,99765.16
2022-09-15T16:43:27.361Z,99761.97
2022-09-15T16:45:53.716Z,99761.72
2022-09-15T16:48:20.104Z,99767.63
2022-09-15T16:51:23.027Z,99770.72
2022-09-15T16:53:33.238Z,99783.81
2022-09-15T16:55:59.596Z,99790.22
2022-09-15T16:58:25.888Z,99796.53
2022-09-15T17:00:52.770Z,99802.09
2022-09-15T17:03:20.520Z,99791.13
2022-09-15T17:05:48.795Z,99818.25
2022-09-15T17:08:16.192Z,99806.97
2022-09-15T17:10:42.892Z,99808.50
2022-09-15T17:13:12.080Z,99801.34
2022-09-15T17:15:39.397Z,99800.19
2022-09-15T17:18:06.957Z,99803.31
2022-09-15T17:20:38.557Z,99797.38
2022-09-15T17:23:16.114Z,99794.94
2022-09-15T17:25:48.854Z,99805.69
2022-09-15T17:28:15.207Z,99807.97
2022-09-15T17:30:41.721Z,99806.41
2022-09-15T17:33:10.910Z,99810.78
2022-09-15T17:35:37.623Z,99816.66
2022-09-15T17:38:05.028Z,99810.72
2022-09-15T17:40:31.504Z,99798.94
2022-09-15T17:42:58.341Z,99802.53
2022-09-15T17:45:27.005Z,99799.75
2022-09-15T17:47:53.978Z,99805.66
2022-09-15T17:50:21.523Z,99807.63
2022-09-15T17:52:48.407Z,99800.91
2022-09-15T17:55:35.029Z,99804.56
2022-09-15T17:58:02.453Z,99797.50
2022-09-15T18:00:30.121Z,99795.69
2022-09-15T18:02:58.293Z,99793.69
2022-09-15T18:05:29.670Z,99794.47
2022-09-15T18:07:58.560Z,99796.84
2022-09-15T18:10:25.542Z,99797.16
2022-09-15T18:12:55.568Z,99797.19
2022-09-15T18:15:23.763Z,99785.44
2022-09-15T18:17:51.121Z,99792.81
2022-09-15T18:20:19.131Z,99788.50
2022-09-15T18:22:45.859Z,99790.13
2022-09-15T18:25:20.454Z,99800.06
2022-09-15T18:27:49.182Z,99803.16
2022-09-15T18:30:16.641Z,99795.38
2022-09-15T18:32:43.288Z,99801.66
2022-09-15T18:35:10.015Z,99796.94
2022-09-15T18:37:37.047Z,99804.00
2022-09-15T18:40:09.125Z,99798.94
2022-09-15T18:42:39.487Z,99802.47
2022-09-15T18:45:06.960Z,99799.31
2022-09-15T18:47:33.747Z,99805.63
2022-09-15T18:50:00.716Z,99791.47
2022-09-15T18:52:27.466Z,99794.56
2022-09-15T18:54:53.863Z,99789.09
2022-09-15T18:57:20.250Z,99796.94
2022-09-15T18:59:47.584Z,99800.09
2022-09-15T19:02:14.643Z,99788.66
2022-09-15T19:04:41.939Z,99789.84
2022-09-15T19:07:08.758Z,99792.59
2022-09-15T19:09:36.387Z,99791.81
2022-09-15T19:12:03.301Z,99789.84
2022-09-15T19:14:30.170Z,99783.97
2022-09-15T19:16:58.331Z,99795.38
2022-09-15T19:19:25.260Z,99790.25
2022-09-15T19:21:51.697Z,99801.25
2022-09-15T19:24:18.291Z,99789.47
2022-09-15T19:26:46.696Z,99800.06
2022-09-15T19:29:13.366Z,99798.91
2022-09-15T19:31:42.120Z,99806.78
2022-09-15T19:34:09.020Z,99801.63
2022-09-15T19:36:35.435Z,99817.00
2022-09-15T19:39:03.377Z,99810.28
2022-09-15T19:41:31.337Z,99818.94
2022-09-15T19:44:00.069Z,99807.94
2022-09-15T19:46:27.019Z,99822.09
2022-09-15T19:48:53.671Z,99819.00
2022-09-15T19:51:20.574Z,99819.31
2022-09-15T19:53:47.001Z,99820.91
2022-09-15T19:56:14.449Z,99814.25
2022-09-15T19:58:40.865Z,99821.34
2022-09-15T20:01:07.292Z,99819.78
2022-09-15T20:03:33.626Z,99824.09
2022-09-15T20:05:59.928Z,99828.44
2022-09-15T20:08:26.782Z,99822.13
2022-09-15T20:10:53.335Z,99825.28
2022-09-15T20:13:19.725Z,99824.53
2022-09-15T20:15:56.819Z,99838.66
2022-09-15T20:18:23.454Z,99839.06
2022-09-15T20:20:49.828Z,99838.66
2022-09-15T20:23:16.363Z,99838.28
2022-09-15T20:25:42.844Z,99841.06
2022-09-15T20:28:09.137Z,99833.97
2022-09-15T20:30:35.565Z,99828.06
2022-09-15T20:33:01.880Z,99835.16
2022-09-15T20:35:28.175Z,99836.31
2022-09-15T20:37:54.522Z,99834.34
2022-09-15T20:40:20.848Z,99836.31
2022-09-15T20:42:47.734Z,99835.13
2022-09-15T20:45:14.089Z,99819.81
2022-09-15T20:47:40.400Z,99828.06
2022-09-15T20:50:06.903Z,99828.03
2022-09-15T20:52:38.265Z,99827.25
2022-09-15T20:55:05.123Z,99826.09
2022-09-15T20:57:31.935Z,99829.25
2022-09-15T20:59:58.242Z,99824.91
2022-09-15T21:02:24.599Z,99834.34
2022-09-15T21:04:50.878Z,99829.25
2022-09-15T21:07:17.261Z,99830.81
2022-09-15T21:09:44.549Z,99831.59
2022-09-15T21:12:10.844Z,99841.81
2022-09-15T21:14:37.141Z,99837.09
2022-09-15T21:17:03.495Z,99818.63
2022-09-15T21:19:31.403Z,99830.81
2022-09-15T21:21:58.442Z,99832.00
2022-09-15T21:24:24.755Z,99842.22
2022-09-15T21:27:10.151Z,99843.41
2022-09-15T21:29:37.022Z,99840.22
2022-09-15T21:32:03.389Z,99852.81
2022-09-15T21:34:30.211Z,99858.75
2022-09-15T21:36:57.856Z,99851.25
2022-09-15T21:39:24.268Z,99854.41
2022-09-15T21:41:50.612Z,99857.97
2022-09-15T21:44:17.269Z,99859.94
2022-09-15T21:46:44.907Z,99866.25
2022-09-15T21:49:11.666Z,99856.00
2022-09-15T21:51:38.012Z,99856.75
2022-09-15T21:54:04.873Z,99862.28
2022-09-15T21:56:31.297Z,99857.56
2022-09-15T21:58:57.640Z,99852.06
2022-09-15T22:01:29.120Z,99859.13
2022-09-15T22:04:00.111Z,99863.88
2022-09-15T22:06:30.450Z,99865.03
2022-09-15T22:08:57.118Z,99851.25
2022-09-15T22:11:23.509Z,99860.31
2022-09-15T22:13:49.861Z,99858.31
2022-09-15T22:16:20.795Z,99859.50
2022-09-15T22:18:47.748Z,99858.31
2022-09-15T22:21:18.439Z,99861.09
2022-09-15T22:23:46.274Z,99862.25
2022-09-15T22:26:15.042Z,99865.00
2022-09-15T22:28:41.417Z,99876.81
2022-09-15T22:31:08.826Z,99866.91
2022-09-15T22:33:35.636Z,99867.38
2022-09-15T22:36:02.478Z,99863.41
2022-09-15T22:38:29.816Z,99865.38
2022-09-15T22:40:56.684Z,99861.44
2022-09-15T22:43:23.022Z,99862.59
2022-09-15T22:45:49.564Z,99858.25
2022-09-15T22:48:15.945Z,99862.19
2022-09-15T22:50:43.788Z,99857.50
2022-09-15T22:53:10.074Z,99860.25
2022-09-15T22:55:36.378Z,99866.16
2022-09-15T22:58:02.660Z,99867.34
2022-09-15T23:00:29.225Z,99869.69
2022-09-15T23:02:56.127Z,99867.72
2022-09-15T23:05:22.431Z,99861.00
2022-09-15T23:07:48.756Z,99871.66
2022-09-15T23:10:15.081Z,99871.69
2022-09-15T23:12:41.451Z,99875.63
2022-09-15T23:15:08.085Z,99872.84
2022-09-15T23:17:34.676Z,99871.72
2022-09-15T23:20:01.100Z,99866.59
2022-09-15T23:22:27.388Z,99867.78
2022-09-15T23:24:53.834Z,99868.56
2022-09-15T23:27:20.141Z,99870.53
2022-09-15T23:29:46.461Z,99866.22
2022-09-15T23:32:12.817Z,99867.38
2022-09-15T23:34:39.100Z,99863.84
2022-09-15T23:37:05.447Z,99862.66
2022-09-15T23:39:31.784Z,99859.88
2022-09-15T23:41:58.124Z,99870.13
2022-09-15T23:44:24.668Z,99864.63
2022-09-15T23:46:51.069Z,99861.03
2022-09-15T23:49:18.825Z,99853.59
2022-09-15T23:51:45.298Z,99857.91
2022-09-15T23:54:11.644Z,99852.00
2022-09-15T23:56:38.362Z,99853.97
2022-09-15T23:59:04.659Z,99855.44
